Time;durP1;ratioP1;P1;durP2;ratioP2;P2;SDS_P1;SDS_P2;PMS_P1;PMS_P2;Temp;Humidity;BMP_temperature;BMP_pressure;BME280_temperature;BME280_humidity;BME280_pressure;Samples;Min_cycle;Max_cycle;Signal;HPM_P1;HPM_P2
2021/04/28 06:35:42;;;;;;;5.43;2.70;;;26.10;44.30;;;;;;4969243;28;20556;-84
2021/04/28 06:38:08;;;;;;;2.90;2.30;;;26.10;44.00;;;;;;4977345;28;20446;-83
2021/04/28 06:40:36;;;;;;;5.97;4.77;;;26.10;43.90;;;;;;4977134;28;20497;-83
2021/04/28 06:43:04;;;;;;;3.07;2.30;;;26.20;42.70;;;;;;4977059;28;20989;-84
2021/04/28 06:45:31;;;;;;;5.07;2.30;;;26.10;42.70;;;;;;4977207;28;20461;-88
2021/04/28 06:47:57;;;;;;;3.83;2.07;;;26.10;43.40;;;;;;4977295;28;20452;-85
2021/04/28 06:50:25;;;;;;;1.87;1.77;;;26.00;43.20;;;;;;4977144;28;20445;-84
2021/04/28 06:52:53;;;;;;;2.23;2.03;;;26.00;43.20;;;;;;4976908;28;20441;-90
2021/04/28 06:55:20;;;;;;;3.43;1.97;;;26.00;43.40;;;;;;4977216;28;20476;-81
2021/04/28 06:57:52;;;;;;;2.33;1.87;;;26.00;43.70;;;;;;4981339;28;20499;-84
2021/04/28 07:00:20;;;;;;;4.83;2.00;;;26.00;43.70;;;;;;4976760;28;20449;-84
2021/04/28 07:02:46;;;;;;;3.00;1.50;;;26.10;43.70;;;;;;4975251;28;20440;-83
2021/04/28 07:05:13;;;;;;;2.23;2.03;;;26.20;43.80;;;;;;4976366;28;20453;-84
2021/04/28 07:07:40;;;;;;;1.90;1.77;;;26.20;43.90;;;;;;4976489;28;20457;-84
2021/04/28 07:10:08;;;;;;;6.13;1.70;;;26.20;43.90;;;;;;4976277;28;20929;-84
2021/04/28 07:12:35;;;;;;;2.33;1.80;;;26.20;43.90;;;;;;4976439;28;20533;-84
2021/04/28 07:15:01;;;;;;;3.40;1.70;;;26.20;44.00;;;;;;4976236;28;20447;-84
2021/04/28 07:17:27;;;;;;;2.50;1.67;;;26.20;44.00;;;;;;4976191;28;20495;-84
2021/04/28 07:19:54;;;;;;;1.40;1.20;;;26.20;44.10;;;;;;4976222;28;20452;-84
2021/04/28 07:22:20;;;;;;;1.80;1.70;;;26.20;44.10;;;;;;4975856;28;20443;-84
2021/04/28 07:24:48;;;;;;;1.90;1.43;;;26.40;44.20;;;;;;4976003;28;20540;-85
2021/04/28 07:27:16;;;;;;;1.70;1.40;;;26.30;44.30;;;;;;4975866;28;20451;-84
2021/04/28 07:29:42;;;;;;;2.47;1.73;;;26.30;44.50;;;;;;4975937;28;20533;-85
2021/04/28 07:32:08;;;;;;;3.10;1.80;;;26.30;44.50;;;;;;4975834;28;20447;-84
2021/04/28 07:34:35;;;;;;;1.30;1.20;;;26.30;44.60;;;;;;4975766;28;20448;-84
2021/04/28 07:37:03;;;;;;;2.63;1.67;;;26.40;44.80;;;;;;4975715;28;20490;-84
2021/04/28 07:39:29;;;;;;;2.20;1.60;;;26.30;44.80;;;;;;4975720;28;20449;-84
2021/04/28 07:41:56;;;;;;;4.17;1.70;;;26.20;44.80;;;;;;4975433;28;20474;-84
2021/04/28 07:44:25;;;;;;;1.60;1.50;;;26.30;44.80;;;;;;4975572;28;20949;-84
2021/04/28 07:46:51;;;;;;;2.10;1.30;;;26.30;44.80;;;;;;4975534;28;20461;-84
2021/04/28 07:49:18;;;;;;;1.43;1.30;;;26.40;44.90;;;;;;4975546;28;20496;-84
2021/04/28 07:51:44;;;;;;;2.57;1.30;;;26.30;44.90;;;;;;4975484;28;20850;-84
2021/04/28 07:54:11;;;;;;;2.40;1.30;;;26.40;44.90;;;;;;4975556;28;20447;-84
2021/04/28 07:56:37;;;;;;;1.50;1.40;;;26.40;44.80;;;;;;4975360;28;20491;-84
2021/04/28 07:59:04;;;;;;;1.97;1.60;;;26.40;44.80;;;;;;4975295;28;20454;-84
2021/04/28 08:01:31;;;;;;;1.63;1.13;;;26.40;44.80;;;;;;4975298;28;20505;-85
2021/04/28 08:03:58;;;;;;;1.83;1.00;;;26.40;44.80;;;;;;4974918;28;20795;-84
2021/04/28 08:06:25;;;;;;;1.40;1.20;;;26.50;45.50;;;;;;4975133;28;20447;-84
2021/04/28 08:08:51;;;;;;;2.50;1.50;;;26.50;44.90;;;;;;4974832;28;20457;-84
2021/04/28 08:11:17;;;;;;;1.33;1.23;;;26.50;44.90;;;;;;4974917;28;20467;-83
2021/04/28 08:13:45;;;;;;;2.43;1.60;;;26.50;44.90;;;;;;4975148;28;20456;-84
2021/04/28 08:16:11;;;;;;;3.00;1.37;;;26.60;45.00;;;;;;4975065;28;20831;-84
2021/04/28 08:18:38;;;;;;;1.20;1.10;;;26.60;45.00;;;;;;4975067;28;20500;-84
2021/04/28 08:21:05;;;;;;;1.50;1.40;;;26.60;45.00;;;;;;4974941;28;21071;-84
2021/04/28 08:23:31;;;;;;;1.30;1.20;;;26.60;45.00;;;;;;4974792;28;20448;-84
2021/04/28 08:25:58;;;;;;;1.20;1.10;;;26.60;45.00;;;;;;4974940;28;20459;-85
2021/04/28 08:28:24;;;;;;;2.07;1.07;;;26.60;45.00;;;;;;4974936;28;20462;-84
2021/04/28 08:30:50;;;;;;;1.20;1.10;;;26.60;45.10;;;;;;4974797;28;20863;-83
2021/04/28 08:33:17;;;;;;;1.63;1.03;;;26.60;45.10;;;;;;4974694;28;20458;-83
2021/04/28 08:35:44;;;;;;;1.20;1.00;;;26.60;45.10;;;;;;4974487;28;20992;-83
2021/04/28 08:38:10;;;;;;;1.57;1.47;;;26.60;45.10;;;;;;4974758;28;20446;-84
2021/04/28 08:40:36;;;;;;;1.77;1.10;;;26.60;45.10;;;;;;4974614;28;20473;-85
2021/04/28 08:43:03;;;;;;;1.70;1.50;;;26.60;45.20;;;;;;4974591;28;20531;-84
2021/04/28 08:45:30;;;;;;;2.50;1.50;;;26.60;45.20;;;;;;4973580;28;20800;-84
2021/04/28 08:47:57;;;;;;;1.40;1.30;;;26.60;45.30;;;;;;4974684;28;20501;-83
2021/04/28 08:50:24;;;;;;;1.80;1.10;;;26.60;45.30;;;;;;4974493;28;20832;-84
2021/04/28 08:52:51;;;;;;;1.10;1.00;;;26.70;45.30;;;;;;4974517;28;20444;-85
2021/04/28 08:55:19;;;;;;;1.30;1.20;;;26.60;45.30;;;;;;4974502;28;20435;-83
2021/04/28 08:57:45;;;;;;;1.30;1.20;;;26.70;45.40;;;;;;4974411;28;20649;-84
2021/04/28 09:00:14;;;;;;;1.30;1.20;;;26.60;45.30;;;;;;4974470;28;20957;-84
2021/04/28 09:02:54;;;;;;;1.30;1.20;;;26.70;45.40;;;;;;4974355;28;20449;-84
2021/04/28 09:05:21;;;;;;;1.40;1.30;;;26.70;45.40;;;;;;4974479;28;20448;-85
2021/04/28 09:07:48;;;;;;;1.30;1.13;;;26.70;45.50;;;;;;4974366;28;20496;-84
2021/04/28 09:10:16;;;;;;;1.67;1.10;;;26.70;45.50;;;;;;4974299;28;20472;-83
2021/04/28 09:12:51;;;;;;;1.43;1.33;;;26.70;45.40;;;;;;4974390;28;20444;-83
2021/04/28 09:15:31;;;;;;;1.80;1.23;;;26.80;45.40;;;;;;4974326;28;20438;-85
2021/04/28 09:17:57;;;;;;;1.60;1.20;;;26.70;45.50;;;;;;4974409;28;20496;-83
2021/04/28 09:20:28;;;;;;;1.10;1.00;;;26.70;45.50;;;;;;4978258;28;20447;-83
2021/04/28 09:23:07;;;;;;;1.00;0.90;;;26.70;45.50;;;;;;4978180;28;20546;-85
2021/04/28 09:25:37;;;;;;;1.23;1.10;;;26.80;45.60;;;;;;4978224;28;20453;-83
2021/04/28 09:28:27;;;;;;;1.50;1.30;;;26.80;45.60;;;;;;4978213;28;20513;-84
2021/04/28 09:31:11;;;;;;;1.70;1.37;;;26.80;45.60;;;;;;4978129;28;20451;-84
2021/04/28 09:33:46;;;;;;;2.23;1.03;;;26.80;45.60;;;;;;4978058;28;20537;-84
2021/04/28 09:36:14;;;;;;;1.30;1.10;;;26.90;45.60;;;;;;4977738;28;20871;-84
2021/04/28 09:38:48;;;;;;;1.10;1.00;;;26.90;45.60;;;;;;4977895;28;20453;-84
2021/04/28 09:41:32;;;;;;;1.30;1.20;;;26.90;45.50;;;;;;4977872;28;20459;-83
2021/04/28 09:43:59;;;;;;;1.10;1.00;;;27.00;45.40;;;;;;4977810;28;20454;-84
2021/04/28 09:46:25;;;;;;;1.50;1.10;;;27.00;45.40;;;;;;4977730;28;20460;-84
2021/04/28 09:49:02;;;;;;;1.73;1.13;;;27.10;45.50;;;;;;4977791;28;20469;-83
2021/04/28 09:51:36;;;;;;;1.13;0.90;;;27.10;45.50;;;;;;4977636;28;20840;-83
2021/04/28 09:54:10;;;;;;;1.10;1.00;;;27.10;45.50;;;;;;4977731;28;20442;-84
2021/04/28 09:56:39;;;;;;;1.33;1.10;;;27.20;45.50;;;;;;4977508;28;20490;-84
2021/04/28 09:59:05;;;;;;;1.20;1.10;;;27.20;45.40;;;;;;4977548;28;20447;-84
2021/04/28 10:01:33;;;;;;;1.23;1.00;;;27.20;45.30;;;;;;4977670;28;20482;-86
2021/04/28 10:04:02;;;;;;;1.80;1.10;;;27.30;45.40;;;;;;4977519;28;20541;-84
2021/04/28 10:06:42;;;;;;;1.27;1.10;;;27.30;45.40;;;;;;4977453;28;20460;-86
2021/04/28 10:09:27;;;;;;;1.20;1.10;;;27.30;45.30;;;;;;4977352;28;20443;-84
2021/04/28 10:11:54;;;;;;;1.10;1.00;;;27.30;45.30;;;;;;4977229;28;20977;-84
2021/04/28 10:14:21;;;;;;;3.63;1.00;;;27.30;45.30;;;;;;4977292;28;20935;-83
2021/04/28 10:16:48;;;;;;;1.37;1.27;;;27.30;45.30;;;;;;4977360;28;20855;-85
2021/04/28 10:19:16;;;;;;;1.20;1.10;;;27.30;45.40;;;;;;4976686;28;20451;-84
2021/04/28 10:21:43;;;;;;;1.30;1.00;;;27.40;45.40;;;;;;4976736;28;20933;-84
2021/04/28 10:24:10;;;;;;;1.37;1.00;;;27.40;45.30;;;;;;4975593;28;21005;-84
2021/04/28 10:26:38;;;;;;;3.57;1.10;;;27.40;45.30;;;;;;4976286;28;20457;-84
2021/04/28 10:29:07;;;;;;;1.00;0.90;;;27.40;45.30;;;;;;4976195;28;20447;-84
2021/04/28 10:31:37;;;;;;;1.30;0.97;;;27.40;45.40;;;;;;4975415;28;20842;-84
2021/04/28 10:34:06;;;;;;;1.20;1.00;;;27.40;45.30;;;;;;4976235;28;20453;-84
2021/04/28 10:36:33;;;;;;;3.00;1.10;;;27.40;45.30;;;;;;4975952;28;20502;-84
2021/04/28 10:39:00;;;;;;;1.20;1.00;;;27.40;45.30;;;;;;4976678;28;20458;-84
2021/04/28 10:41:40;;;;;;;1.23;0.93;;;27.40;45.30;;;;;;4976697;28;20526;-84
2021/04/28 10:44:43;;;;;;;1.30;1.20;;;27.50;45.30;;;;;;4976900;28;20774;-85
2021/04/28 10:47:40;;;;;;;1.20;1.00;;;27.50;45.30;;;;;;4976765;28;20486;-85
2021/04/28 10:50:24;;;;;;;3.37;1.43;;;27.50;45.30;;;;;;4976754;28;20459;-84
2021/04/28 10:52:57;;;;;;;1.20;1.00;;;27.50;45.30;;;;;;4976755;28;20536;-86
2021/04/28 10:55:44;;;;;;;1.27;1.10;;;27.50;45.30;;;;;;4976650;28;20773;-84
2021/04/28 10:58:39;;;;;;;1.37;1.10;;;27.60;45.60;;;;;;4976523;28;20487;-84
2021/04/28 11:01:39;;;;;;;1.10;0.90;;;27.50;45.30;;;;;;4976487;28;20539;-84
2021/04/28 11:04:13;;;;;;;1.30;1.20;;;27.50;45.30;;;;;;4976524;28;20847;-84
2021/04/28 11:06:44;;;;;;;1.10;0.93;;;27.50;45.30;;;;;;4976444;28;20455;-84
2021/04/28 11:09:21;;;;;;;1.50;1.10;;;27.60;45.30;;;;;;4976261;28;20509;-84
2021/04/28 11:12:01;;;;;;;1.30;1.20;;;27.60;45.30;;;;;;4976159;28;20478;-84
2021/04/28 11:14:35;;;;;;;1.10;1.00;;;27.60;45.30;;;;;;4976248;28;20452;-84
2021/04/28 11:17:21;;;;;;;1.10;0.93;;;27.60;45.30;;;;;;4976163;28;21009;-84
2021/04/28 11:19:51;;;;;;;1.30;1.10;;;27.60;45.30;;;;;;4976109;28;20447;-84
2021/04/28 11:22:22;;;;;;;3.07;1.07;;;27.60;45.30;;;;;;4975894;28;20446;-86
2021/04/28 11:25:02;;;;;;;1.20;1.10;;;27.60;45.30;;;;;;4976218;28;20479;-84
2021/04/28 11:27:53;;;;;;;1.30;1.20;;;27.60;45.30;;;;;;4976039;28;20467;-84
2021/04/28 11:30:30;;;;;;;1.13;1.03;;;27.70;45.40;;;;;;4975969;28;20449;-83
2021/04/28 11:33:19;;;;;;;1.23;1.10;;;27.70;45.40;;;;;;4975942;28;20457;-84
2021/04/28 11:36:06;;;;;;;1.20;1.07;;;27.70;45.40;;;;;;4975631;28;20847;-84
2021/04/28 11:38:34;;;;;;;1.53;1.27;;;27.60;45.30;;;;;;4975828;28;20538;-86
2021/04/28 11:41:02;;;;;;;1.60;1.03;;;27.60;45.30;;;;;;4975336;28;20471;-84
2021/04/28 11:43:31;;;;;;;1.10;1.00;;;27.60;45.40;;;;;;4974850;28;20454;-84
2021/04/28 11:46:03;;;;;;;1.20;1.03;;;27.60;45.40;;;;;;4975664;28;20778;-84
2021/04/28 11:48:31;;;;;;;1.57;1.00;;;27.70;45.40;;;;;;4975557;28;20454;-84
2021/04/28 11:50:59;;;;;;;1.33;1.00;;;27.60;45.40;;;;;;4975400;28;20443;-84
2021/04/28 11:53:27;;;;;;;1.63;1.10;;;27.60;45.50;;;;;;4975536;28;20450;-84
2021/04/28 11:55:53;;;;;;;1.20;1.10;;;27.60;45.50;;;;;;4975484;28;20447;-84
2021/04/28 11:58:21;;;;;;;1.10;0.90;;;27.60;45.50;;;;;;4975381;28;20495;-83
2021/04/28 12:00:48;;;;;;;1.57;1.20;;;27.60;45.40;;;;;;4975377;28;20456;-86
2021/04/28 12:03:14;;;;;;;1.20;1.00;;;27.60;45.50;;;;;;4975185;28;20451;-84
2021/04/28 12:05:41;;;;;;;1.27;1.17;;;27.60;45.50;;;;;;4975346;28;20505;-84
2021/04/28 12:08:08;;;;;;;1.40;1.30;;;27.60;45.50;;;;;;4975277;28;20448;-84
2021/04/28 12:10:36;;;;;;;1.20;0.93;;;27.60;45.40;;;;;;4975083;28;20459;-84
2021/04/28 12:13:11;;;;;;;1.10;1.00;;;27.60;45.50;;;;;;4975095;28;20981;-84
2021/04/28 12:15:37;;;;;;;1.10;1.00;;;27.60;45.50;;;;;;4975263;28;20454;-84
2021/04/28 12:18:04;;;;;;;1.20;1.10;;;27.60;45.50;;;;;;4974941;28;20505;-84
2021/04/28 12:20:30;;;;;;;1.30;1.00;;;27.60;45.50;;;;;;4974911;28;20438;-84
2021/04/28 12:22:58;;;;;;;1.20;1.00;;;27.60;45.50;;;;;;4974900;28;20782;-86
2021/04/28 12:25:24;;;;;;;1.30;1.00;;;27.60;45.50;;;;;;4975020;28;20458;-84
2021/04/28 12:27:51;;;;;;;2.27;1.20;;;27.60;45.50;;;;;;4974985;28;20498;-84
2021/04/28 12:30:20;;;;;;;1.20;0.90;;;27.60;45.50;;;;;;4974677;28;20949;-86
2021/04/28 12:32:48;;;;;;;1.00;0.87;;;27.60;45.60;;;;;;4974904;28;20497;-84
2021/04/28 12:35:18;;;;;;;1.10;1.00;;;27.60;45.50;;;;;;4974577;28;20541;-84
2021/04/28 12:37:59;;;;;;;1.27;1.17;;;27.60;45.50;;;;;;4974683;28;20611;-84
2021/04/28 12:40:33;;;;;;;3.93;1.27;;;27.60;45.50;;;;;;4974566;28;20478;-84
2021/04/28 12:43:00;;;;;;;1.30;1.10;;;27.60;45.60;;;;;;4974574;28;20472;-84
2021/04/28 12:45:27;;;;;;;1.37;1.10;;;27.60;45.60;;;;;;4974637;28;20940;-84
2021/04/28 12:48:04;;;;;;;1.20;1.03;;;27.50;45.60;;;;;;4974713;28;20458;-84
2021/04/28 12:50:34;;;;;;;1.27;0.93;;;27.60;45.60;;;;;;4974553;28;20458;-84
2021/04/28 12:53:07;;;;;;;1.00;0.80;;;27.50;45.60;;;;;;4974258;28;20448;-84
2021/04/28 12:55:37;;;;;;;1.10;0.90;;;27.60;45.70;;;;;;4974582;28;20442;-84
2021/04/28 12:58:06;;;;;;;1.63;1.03;;;27.50;45.60;;;;;;4974437;28;20868;-84
2021/04/28 13:00:35;;;;;;;1.10;0.87;;;27.50;45.70;;;;;;4974327;28;20506;-84
2021/04/28 13:03:10;;;;;;;1.10;0.90;;;27.50;45.70;;;;;;4974279;28;20934;-83
2021/04/28 13:05:38;;;;;;;2.60;1.23;;;27.50;45.70;;;;;;4974472;28;20461;-84
2021/04/28 13:08:30;;;;;;;1.10;0.90;;;27.50;45.70;;;;;;4974382;28;20459;-84
2021/04/28 13:11:07;;;;;;;1.10;0.90;;;27.50;45.70;;;;;;4960159;28;20476;-84
2021/04/28 13:13:35;;;;;;;1.20;1.10;;;27.50;45.70;;;;;;4974436;28;20446;-86
2021/04/28 13:16:04;;;;;;;1.43;1.33;;;27.50;45.70;;;;;;4974270;28;20444;-84
2021/04/28 13:18:47;;;;;;;1.20;0.90;;;27.50;45.80;;;;;;4974138;28;20492;-84
2021/04/28 13:21:24;;;;;;;1.20;1.00;;;27.50;45.70;;;;;;4974215;28;20445;-84
2021/04/28 13:24:03;;;;;;;1.10;0.90;;;27.50;45.70;;;;;;4974180;28;20806;-86
2021/04/28 13:26:30;;;;;;;1.20;1.03;;;27.50;45.70;;;;;;4974237;28;20448;-83
2021/04/28 13:28:57;;;;;;;1.00;0.90;;;27.50;45.80;;;;;;4974257;28;20442;-84
2021/04/28 13:31:25;;;;;;;1.27;0.90;;;27.50;45.80;;;;;;4974083;28;20985;-84
2021/04/28 13:33:53;;;;;;;1.00;0.90;;;27.50;45.70;;;;;;4974111;28;20969;-86
2021/04/28 13:36:28;;;;;;;1.10;0.90;;;27.50;45.70;;;;;;4973909;28;20479;-84
2021/04/28 13:38:58;;;;;;;1.00;0.80;;;27.50;45.70;;;;;;4974242;28;20811;-86
2021/04/28 13:41:26;;;;;;;1.40;0.93;;;27.50;45.70;;;;;;4973961;28;20464;-84
2021/04/28 13:43:53;;;;;;;1.00;0.90;;;27.50;45.70;;;;;;4973958;28;20477;-83
2021/04/28 13:46:19;;;;;;;1.73;1.00;;;27.50;45.80;;;;;;4974100;28;20449;-84
2021/04/28 13:48:46;;;;;;;1.10;1.00;;;27.50;45.80;;;;;;4974021;28;20455;-84
2021/04/28 13:51:12;;;;;;;1.00;0.90;;;27.50;45.80;;;;;;4974050;28;20537;-83
2021/04/28 13:53:39;;;;;;;1.20;1.00;;;27.50;45.80;;;;;;4973947;28;20449;-84
2021/04/28 13:56:07;;;;;;;1.20;1.10;;;27.50;45.80;;;;;;4974015;28;20451;-83
2021/04/28 13:58:34;;;;;;;1.10;0.97;;;27.50;45.80;;;;;;4973842;28;20493;-84
2021/04/28 14:01:00;;;;;;;1.10;1.00;;;27.50;45.80;;;;;;4973861;28;20512;-86
2021/04/28 14:03:27;;;;;;;1.03;0.90;;;27.40;45.80;;;;;;4973873;28;20866;-86
2021/04/28 14:05:53;;;;;;;1.10;0.97;;;27.40;45.80;;;;;;4975527;28;20550;-84
2021/04/28 14:08:20;;;;;;;1.37;1.27;;;27.40;45.80;;;;;;4977542;28;20459;-85
2021/04/28 14:10:46;;;;;;;1.20;0.93;;;27.40;45.80;;;;;;4977265;28;20554;-83
2021/04/28 14:13:13;;;;;;;1.20;1.00;;;27.40;45.80;;;;;;4977465;28;20847;-83
2021/04/28 14:15:40;;;;;;;1.10;1.00;;;27.40;45.80;;;;;;4977341;28;20454;-83
2021/04/28 14:18:06;;;;;;;1.30;1.07;;;27.40;45.80;;;;;;4977182;28;20491;-83
2021/04/28 14:20:33;;;;;;;1.10;1.00;;;27.40;45.80;;;;;;4977075;28;20446;-83
2021/04/28 14:23:00;;;;;;;1.00;0.90;;;27.40;45.80;;;;;;4977150;28;20442;-83
2021/04/28 14:25:26;;;;;;;1.10;0.90;;;27.40;45.80;;;;;;4977062;28;20941;-83
2021/04/28 14:27:52;;;;;;;1.40;1.30;;;27.40;45.80;;;;;;4977107;28;20444;-83
2021/04/28 14:30:22;;;;;;;1.20;1.10;;;27.40;45.80;;;;;;4976961;28;20450;-85
2021/04/28 14:32:49;;;;;;;1.10;0.90;;;27.30;45.80;;;;;;4977056;28;20448;-83
2021/04/28 14:35:16;;;;;;;1.00;0.90;;;27.30;45.80;;;;;;4976957;28;20507;-83
2021/04/28 14:37:43;;;;;;;1.20;1.00;;;27.30;45.80;;;;;;4976869;28;20593;-85
2021/04/28 14:40:10;;;;;;;1.20;1.10;;;27.30;45.80;;;;;;4976811;28;20476;-83
2021/04/28 14:42:36;;;;;;;1.00;0.90;;;27.30;45.80;;;;;;4976733;28;20498;-83
2021/04/28 14:45:04;;;;;;;1.10;0.90;;;27.30;45.80;;;;;;4976810;28;20451;-84
2021/04/28 14:47:30;;;;;;;1.00;0.80;;;27.30;45.90;;;;;;4976714;28;20454;-83
2021/04/28 14:49:57;;;;;;;1.20;1.10;;;27.30;45.90;;;;;;4976634;28;20443;-83
2021/04/28 14:52:24;;;;;;;1.07;0.90;;;27.30;45.90;;;;;;4976651;28;20462;-85
2021/04/28 14:54:50;;;;;;;1.10;0.80;;;27.30;45.90;;;;;;4976548;28;20470;-83
2021/04/28 14:57:16;;;;;;;1.10;1.00;;;27.30;45.90;;;;;;4976524;28;20498;-83
2021/04/28 14:59:43;;;;;;;1.00;0.80;;;27.30;45.90;;;;;;4976461;28;20806;-83
2021/04/28 15:02:10;;;;;;;1.00;0.90;;;27.20;45.90;;;;;;4976404;28;20475;-83
2021/04/28 15:04:36;;;;;;;1.17;0.97;;;27.20;45.90;;;;;;4976463;28;20448;-83
2021/04/28 15:07:04;;;;;;;1.70;1.00;;;27.20;45.90;;;;;;4976456;28;20451;-83
2021/04/28 15:09:31;;;;;;;1.00;0.90;;;27.20;45.90;;;;;;4976384;28;20443;-83
2021/04/28 15:11:57;;;;;;;1.17;0.80;;;27.20;46.00;;;;;;4976270;28;21005;-83
2021/04/28 15:14:23;;;;;;;1.10;0.90;;;27.20;46.00;;;;;;4976272;28;20438;-83
2021/04/28 15:16:50;;;;;;;1.13;1.00;;;27.10;45.90;;;;;;4975866;28;20495;-84
2021/04/28 15:19:16;;;;;;;1.10;0.90;;;27.10;45.90;;;;;;4976239;28;20447;-83
2021/04/28 15:21:45;;;;;;;1.20;1.10;;;27.10;45.90;;;;;;4975988;28;20454;-83
2021/04/28 15:24:13;;;;;;;1.00;0.80;;;27.10;45.90;;;;;;4976130;28;20516;-83
2021/04/28 15:26:40;;;;;;;1.00;0.90;;;27.10;46.00;;;;;;4976021;28;20549;-83
2021/04/28 15:29:07;;;;;;;1.10;1.00;;;27.10;46.00;;;;;;4975950;28;20509;-85
2021/04/28 15:31:35;;;;;;;1.03;0.90;;;27.10;46.00;;;;;;4975950;28;21000;-83
2021/04/28 15:34:01;;;;;;;1.97;1.00;;;27.10;46.00;;;;;;4975876;28;20451;-83
2021/04/28 15:36:27;;;;;;;1.10;1.00;;;27.10;46.00;;;;;;4975632;28;20478;-83
2021/04/28 15:38:54;;;;;;;1.00;0.90;;;27.10;46.00;;;;;;4975837;28;20517;-83
2021/04/28 15:41:22;;;;;;;1.10;1.00;;;27.10;46.00;;;;;;4975653;28;20815;-83
2021/04/28 15:43:48;;;;;;;1.10;1.00;;;27.00;46.00;;;;;;4975612;28;20450;-85
2021/04/28 15:46:15;;;;;;;1.20;0.90;;;27.00;46.00;;;;;;4975740;28;20444;-83
2021/04/28 15:48:42;;;;;;;1.30;1.17;;;27.00;46.00;;;;;;4975528;28;20443;-83
2021/04/28 15:51:08;;;;;;;0.93;0.73;;;27.00;46.00;;;;;;4975454;28;20450;-85
2021/04/28 15:53:35;;;;;;;1.00;0.90;;;27.00;46.00;;;;;;4975577;28;20487;-83
2021/04/28 15:56:01;;;;;;;1.20;1.10;;;27.00;46.00;;;;;;4975543;28;20465;-83
2021/04/28 15:58:28;;;;;;;1.00;0.90;;;27.00;46.00;;;;;;4975271;28;20500;-83
2021/04/28 16:00:54;;;;;;;1.30;1.00;;;27.00;46.00;;;;;;4975415;28;20508;-83
2021/04/28 16:03:21;;;;;;;1.07;0.80;;;27.00;46.00;;;;;;4975185;28;20442;-83
2021/04/28 16:05:48;;;;;;;1.10;0.90;;;27.00;46.00;;;;;;4975359;28;20574;-83
2021/04/28 16:08:14;;;;;;;1.00;0.87;;;27.00;46.00;;;;;;4975254;28;20447;-83
2021/04/28 16:10:40;;;;;;;1.23;1.13;;;27.00;46.00;;;;;;4975120;28;20481;-83
2021/04/28 16:13:07;;;;;;;1.00;0.87;;;27.00;46.10;;;;;;4975186;28;20776;-83
2021/04/28 16:15:34;;;;;;;1.10;0.80;;;27.00;46.10;;;;;;4975300;28;20456;-85
2021/04/28 16:18:00;;;;;;;1.10;0.90;;;27.00;46.10;;;;;;4975069;28;20548;-83
2021/04/28 16:20:26;;;;;;;1.20;1.10;;;27.00;46.10;;;;;;4975070;28;20453;-83
2021/04/28 16:22:53;;;;;;;1.10;0.90;;;26.90;46.00;;;;;;4974968;28;20441;-83
2021/04/28 16:25:19;;;;;;;1.10;1.00;;;27.00;46.10;;;;;;4975099;28;20439;-83
2021/04/28 16:27:46;;;;;;;1.20;1.10;;;27.00;46.00;;;;;;4974389;28;20435;-83
2021/04/28 16:30:15;;;;;;;1.13;0.90;;;27.00;46.00;;;;;;4974803;28;20448;-83
2021/04/28 16:32:42;;;;;;;1.30;0.90;;;27.00;46.00;;;;;;4974894;28;20485;-83
2021/04/28 16:35:10;;;;;;;1.07;0.97;;;27.00;46.00;;;;;;4980008;28;20481;-83
2021/04/28 16:37:36;;;;;;;1.30;0.80;;;27.00;46.10;;;;;;4994281;28;20539;-83
2021/04/28 16:40:03;;;;;;;1.40;0.87;;;26.90;46.00;;;;;;4994066;28;20481;-85
2021/04/28 16:42:29;;;;;;;1.17;1.00;;;26.90;46.00;;;;;;4994047;28;21012;-83
2021/04/28 16:44:55;;;;;;;1.30;1.00;;;26.90;46.00;;;;;;4994030;28;20942;-85
2021/04/28 16:47:22;;;;;;;1.60;1.27;;;27.00;46.10;;;;;;4994051;28;20458;-83
2021/04/28 16:49:49;;;;;;;1.00;0.73;;;27.00;46.10;;;;;;4994004;28;20451;-83
2021/04/28 16:52:15;;;;;;;1.10;1.00;;;27.00;46.10;;;;;;4993794;28;20537;-83
2021/04/28 16:54:42;;;;;;;1.20;1.10;;;26.90;46.00;;;;;;4993919;28;20457;-84
2021/04/28 16:57:08;;;;;;;1.10;1.00;;;26.90;46.00;;;;;;4993906;28;21060;-83
2021/04/28 16:59:34;;;;;;;1.20;0.83;;;27.00;46.00;;;;;;4993864;28;20451;-84
2021/04/28 17:02:00;;;;;;;0.90;0.77;;;26.90;46.00;;;;;;4993701;28;20478;-84
2021/04/28 17:04:27;;;;;;;1.10;1.00;;;26.90;46.00;;;;;;4993782;28;20450;-84
2021/04/28 17:06:54;;;;;;;1.00;0.80;;;26.90;46.00;;;;;;4993851;28;20810;-84
2021/04/28 17:09:21;;;;;;;1.10;0.97;;;26.90;46.00;;;;;;4993849;28;20445;-84
2021/04/28 17:11:47;;;;;;;1.13;1.00;;;26.90;46.00;;;;;;4993645;28;21004;-83
2021/04/28 17:14:13;;;;;;;1.10;0.90;;;26.90;46.00;;;;;;4993857;28;20480;-83
2021/04/28 17:16:40;;;;;;;1.00;0.90;;;26.90;46.00;;;;;;4993763;28;20450;-84
2021/04/28 17:19:06;;;;;;;1.00;0.80;;;26.90;46.00;;;;;;4993683;28;20506;-84
2021/04/28 17:21:32;;;;;;;1.07;0.97;;;27.00;46.00;;;;;;4993663;28;20529;-87
2021/04/28 17:23:59;;;;;;;1.03;0.93;;;27.00;46.00;;;;;;4993491;28;20458;-85
2021/04/28 17:26:26;;;;;;;1.00;0.87;;;27.00;46.00;;;;;;4993722;28;20442;-84
2021/04/28 17:28:52;;;;;;;1.10;1.00;;;26.90;46.60;;;;;;4993745;28;20446;-87
2021/04/28 17:31:18;;;;;;;1.00;0.80;;;26.90;46.00;;;;;;4993700;28;20453;-86
2021/04/28 17:33:45;;;;;;;1.10;0.90;;;26.90;46.00;;;;;;4999821;28;21011;-85
2021/04/28 17:36:12;;;;;;;0.93;0.83;;;26.90;46.00;;;;;;5012977;28;20893;-85
2021/04/28 17:38:38;;;;;;;1.10;1.00;;;26.90;46.00;;;;;;5013191;28;20538;-86
2021/04/28 17:41:06;;;;;;;1.10;0.90;;;26.90;46.00;;;;;;5016884;28;20478;-84
2021/04/28 17:43:32;;;;;;;1.07;0.90;;;26.90;46.00;;;;;;5016861;28;20873;-85
2021/04/28 17:45:58;;;;;;;1.10;0.90;;;26.90;46.00;;;;;;5016948;28;20444;-84
2021/04/28 17:48:25;;;;;;;1.10;0.87;;;26.90;46.00;;;;;;5016813;28;20450;-85
2021/04/28 17:50:51;;;;;;;1.07;0.80;;;26.90;46.60;;;;;;5016812;28;20801;-86
2021/04/28 17:53:18;;;;;;;0.97;0.80;;;26.90;46.00;;;;;;5016785;28;20444;-85
2021/04/28 17:55:45;;;;;;;1.00;0.90;;;26.90;46.00;;;;;;5016708;28;20449;-84
2021/04/28 17:58:14;;;;;;;1.10;0.90;;;26.90;46.10;;;;;;5016666;28;20488;-84
2021/04/28 18:00:40;;;;;;;1.10;0.90;;;26.80;46.00;;;;;;5016247;28;20466;-84
2021/04/28 18:03:07;;;;;;;2.80;2.07;;;26.90;46.10;;;;;;5015869;28;20479;-90
2021/04/28 18:05:34;;;;;;;3.00;1.67;;;26.90;45.10;;;;;;5016749;28;20815;-86
2021/04/28 18:08:01;;;;;;;2.47;1.70;;;26.80;44.30;;;;;;5016894;28;20445;-88
2021/04/28 18:10:28;;;;;;;1.70;1.50;;;26.70;44.40;;;;;;5016682;28;20478;-83
2021/04/28 18:12:54;;;;;;;2.33;1.50;;;26.70;44.20;;;;;;5016526;28;20448;-89
2021/04/28 18:15:21;;;;;;;3.37;1.80;;;26.70;44.50;;;;;;5016695;28;20448;-88
2021/04/28 18:17:48;;;;;;;4.97;3.23;;;26.70;44.60;;;;;;5016782;28;20488;-86
2021/04/28 18:20:15;;;;;;;6.33;3.87;;;26.60;45.10;;;;;;5016445;28;20533;-86
2021/04/28 18:22:42;;;;;;;10.00;3.63;;;26.60;45.70;;;;;;5016424;28;20444;-86
2021/04/28 18:25:10;;;;;;;4.70;2.90;;;26.60;46.10;;;;;;5016460;28;20448;-86
2021/04/28 18:27:36;;;;;;;7.40;3.40;;;26.60;46.20;;;;;;5016393;28;21016;-87
2021/04/28 18:30:04;;;;;;;10.60;4.20;;;26.60;46.20;;;;;;5016321;28;20450;-86
2021/04/28 18:32:31;;;;;;;6.90;3.00;;;26.70;46.30;;;;;;5016151;28;20436;-87
2021/04/28 18:34:57;;;;;;;6.00;2.97;;;26.70;46.30;;;;;;5016099;28;20555;-87
2021/04/28 18:37:24;;;;;;;8.83;3.10;;;26.70;46.40;;;;;;5016085;28;20572;-87
2021/04/28 18:39:50;;;;;;;3.90;3.03;;;26.70;46.40;;;;;;5015971;28;20505;-88
2021/04/28 18:42:16;;;;;;;6.00;2.80;;;26.70;46.40;;;;;;5016131;28;20448;-85
2021/04/28 18:44:42;;;;;;;4.03;2.33;;;26.70;46.40;;;;;;5016095;28;21149;-86
2021/04/28 18:47:09;;;;;;;4.43;2.80;;;26.70;46.30;;;;;;5016300;28;20543;-85
2021/04/28 18:49:36;;;;;;;5.80;2.67;;;26.70;46.30;;;;;;5016327;28;20545;-84
2021/04/28 18:52:02;;;;;;;5.93;2.93;;;26.80;46.10;;;;;;5015448;28;20449;-86
2021/04/28 18:54:29;;;;;;;4.30;2.50;;;26.80;46.20;;;;;;5016008;28;20444;-85
2021/04/28 18:56:55;;;;;;;4.90;2.50;;;26.80;46.30;;;;;;5015862;28;20437;-88
2021/04/28 18:59:22;;;;;;;5.07;2.30;;;26.80;46.30;;;;;;5015889;28;20772;-87
2021/04/28 19:01:48;;;;;;;6.33;2.60;;;26.90;46.40;;;;;;5015901;28;20531;-89
2021/04/28 19:04:14;;;;;;;4.07;2.90;;;26.90;46.40;;;;;;5016197;28;20481;-87
2021/04/28 19:06:41;;;;;;;6.60;2.40;;;26.90;46.40;;;;;;5016560;28;20520;-87
2021/04/28 19:09:08;;;;;;;3.83;2.30;;;26.90;46.50;;;;;;5015747;28;20467;-86
2021/04/28 19:11:35;;;;;;;4.50;2.77;;;26.90;46.40;;;;;;5015458;28;20460;-91
2021/04/28 19:14:01;;;;;;;5.67;2.33;;;26.80;46.40;;;;;;5015348;28;20948;-86
2021/04/28 19:16:27;;;;;;;4.80;2.07;;;26.90;46.50;;;;;;5015724;28;20536;-86
2021/04/28 19:18:54;;;;;;;2.97;2.03;;;26.90;46.50;;;;;;5015635;28;20491;-86
2021/04/28 19:21:20;;;;;;;2.70;2.10;;;26.90;46.50;;;;;;5015429;28;20439;-87
2021/04/28 19:23:47;;;;;;;3.00;2.33;;;26.90;46.50;;;;;;5015596;28;20543;-89
2021/04/28 19:26:14;;;;;;;4.50;2.47;;;26.90;46.50;;;;;;5015592;28;20528;-88
2021/04/28 19:28:40;;;;;;;4.33;2.17;;;26.90;46.50;;;;;;5014990;28;20451;-88
2021/04/28 19:31:07;;;;;;;2.90;2.10;;;26.90;46.50;;;;;;5015346;28;20445;-88